Time;durP1;ratioP1;P1;durP2;ratioP2;P2;SDS_P1;SDS_P2;PMS_P1;PMS_P2;Temp;Humidity;BMP_temperature;BMP_pressure;BME280_temperature;BME280_humidity;BME280_pressure;Samples;Min_cycle;Max_cycle;Signal;HPM_P1;HPM_P2
2022/11/16 00:00:33;;;;;;;6.68;3.03;;;;;;;5.64;100.00;97403.25;5036107;28;20141;-88
2022/11/16 00:03:03;;;;;;;3.30;2.15;;;;;;;5.69;100.00;97395.59;5032346;28;20040;-83
2022/11/16 00:05:30;;;;;;;5.68;2.17;;;;;;;5.68;100.00;97391.38;5038827;28;20040;-83
2022/11/16 00:07:56;;;;;;;5.38;1.90;;;;;;;5.71;100.00;97391.81;5017384;28;20040;-82
2022/11/16 00:10:22;;;;;;;7.45;1.60;;;;;;;5.76;100.00;97395.66;5017441;28;20037;-83
2022/11/16 00:12:48;;;;;;;3.28;1.60;;;;;;;5.80;100.00;97400.34;5031926;28;20036;-83
2022/11/16 00:15:14;;;;;;;4.25;2.83;;;;;;;5.81;100.00;97399.34;5033868;28;20467;-83
2022/11/16 00:17:39;;;;;;;3.60;1.23;;;;;;;5.81;100.00;97404.56;5027900;28;20586;-88
2022/11/16 00:20:06;;;;;;;5.03;1.00;;;;;;;5.81;100.00;97403.78;5024964;28;20037;-87
2022/11/16 00:22:31;;;;;;;4.18;1.58;;;;;;;5.78;100.00;97404.16;5036354;28;20037;-87
2022/11/16 00:24:57;;;;;;;6.50;1.33;;;;;;;5.76;100.00;97401.72;5047283;28;20034;-88
2022/11/16 00:27:23;;;;;;;2.83;1.08;;;;;;;5.77;100.00;97411.22;5035627;28;20102;-87
2022/11/16 00:29:49;;;;;;;1.60;0.80;;;;;;;5.74;100.00;97402.91;5022838;28;20037;-83
2022/11/16 00:32:14;;;;;;;0.85;0.68;;;;;;;5.76;100.00;97403.53;5049061;28;20037;-83
2022/11/16 00:34:40;;;;;;;5.05;1.55;;;;;;;5.70;100.00;97395.41;5040718;28;20076;-87
2022/11/16 00:37:06;;;;;;;6.82;2.60;;;;;;;5.62;100.00;97400.00;5039900;28;20038;-87
2022/11/16 00:39:32;;;;;;;3.50;1.83;;;;;;;5.55;100.00;97399.91;5012679;28;20043;-88
2022/11/16 00:41:58;;;;;;;2.70;1.73;;;;;;;5.54;100.00;97408.78;4997868;28;20036;-87
2022/11/16 00:44:24;;;;;;;5.32;3.63;;;;;;;5.57;100.00;97403.19;5015683;28;20041;-87
2022/11/16 00:46:50;;;;;;;7.30;3.65;;;;;;;5.58;100.00;97407.41;5037124;28;20037;-88
2022/11/16 00:49:15;;;;;;;5.03;3.60;;;;;;;5.56;100.00;97394.50;5032254;28;20040;-88
2022/11/16 00:51:41;;;;;;;9.15;4.57;;;;;;;5.60;100.00;97400.19;5031945;28;20021;-88
2022/11/16 00:54:08;;;;;;;8.25;5.32;;;;;;;5.57;100.00;97406.59;5045698;28;20037;-83
2022/11/16 00:56:36;;;;;;;4.40;3.47;;;;;;;5.61;100.00;97407.03;5031581;28;20037;-83
2022/11/16 00:59:03;;;;;;;4.43;2.97;;;;;;;5.58;100.00;97400.38;5029163;28;20033;-88
2022/11/16 01:01:29;;;;;;;5.60;2.60;;;;;;;5.54;100.00;97401.72;5018270;28;20115;-88
2022/11/16 01:03:55;;;;;;;3.08;2.17;;;;;;;5.49;100.00;97396.25;5047513;28;20539;-83
2022/11/16 01:06:22;;;;;;;4.90;2.25;;;;;;;5.51;100.00;97396.06;5047814;28;20064;-83
2022/11/16 01:08:48;;;;;;;3.90;2.65;;;;;;;5.51;100.00;97391.63;5017063;28;20175;-88
2022/11/16 01:14:03;;;;;;;;;;;;;;;5.45;100.00;97380.09;5045731;28;20047;-88
2022/11/16 01:16:29;;;;;;;3.50;2.83;;;;;;;5.44;100.00;97391.56;5045610;28;19921;-88
2022/11/16 01:18:55;;;;;;;9.18;4.85;;;;;;;5.33;100.00;97384.22;5027465;28;20041;-87
2022/11/16 01:21:22;;;;;;;8.93;2.75;;;;;;;5.19;100.00;97388.50;5044070;28;20457;-88
2022/11/16 01:23:49;;;;;;;5.93;2.25;;;;;;;5.03;100.00;97382.47;5047029;28;20110;-87
2022/11/16 01:26:15;;;;;;;3.92;2.65;;;;;;;4.93;100.00;97377.56;5044571;28;20021;-87
2022/11/16 01:28:41;;;;;;;6.47;2.75;;;;;;;4.90;100.00;97375.31;5028496;28;20393;-86
2022/11/16 01:31:09;;;;;;;8.63;2.47;;;;;;;4.91;100.00;97376.91;5005862;28;20119;-87
2022/11/16 01:33:36;;;;;;;4.40;2.50;;;;;;;4.92;100.00;97382.97;5028138;28;20410;-88
2022/11/16 01:36:09;;;;;;;3.55;2.40;;;;;;;4.99;100.00;97385.66;5031304;28;20037;-87
2022/11/16 01:38:35;;;;;;;3.17;2.13;;;;;;;5.01;100.00;97381.88;5017048;28;20068;-87
2022/11/16 01:41:01;;;;;;;9.32;2.45;;;;;;;5.06;100.00;97379.53;5006765;28;20037;-87
2022/11/16 01:43:28;;;;;;;3.90;2.35;;;;;;;5.07;100.00;97375.06;5034580;28;20048;-87
2022/11/16 01:46:00;;;;;;;8.25;3.00;;;;;;;5.06;100.00;97381.31;5031499;28;20107;-86
2022/11/16 01:48:29;;;;;;;5.55;3.40;;;;;;;5.05;100.00;97375.25;5029026;28;20442;-83
2022/11/16 01:50:56;;;;;;;7.30;3.95;;;;;;;5.03;100.00;97377.25;5015620;28;20056;-83
2022/11/16 01:53:23;;;;;;;7.07;4.28;;;;;;;4.97;100.00;97383.22;5019904;28;20132;-87
2022/11/16 01:55:52;;;;;;;6.50;5.13;;;;;;;4.89;100.00;97381.53;5012519;28;20107;-87
2022/11/16 01:58:30;;;;;;;11.82;4.60;;;;;;;4.86;100.00;97383.72;5034745;28;20044;-83
2022/11/16 02:01:03;;;;;;;7.88;3.78;;;;;;;4.88;100.00;97386.94;5031416;28;20107;-82
2022/11/16 02:03:37;;;;;;;8.57;3.75;;;;;;;4.91;100.00;97386.56;5050193;28;20056;-87
2022/11/16 02:06:25;;;;;;;7.18;3.85;;;;;;;4.92;100.00;97386.38;5033668;28;20036;-87
2022/11/16 02:09:53;;;;;;;64.38;7.32;;;;;;;4.87;100.00;97393.19;5037162;28;20044;-83
2022/11/16 02:12:41;;;;;;;19.80;5.07;;;;;;;4.65;100.00;97395.75;5038029;28;20037;-83
2022/11/16 02:15:50;;;;;;;35.20;5.05;;;;;;;4.43;100.00;97396.47;5048296;28;20393;-83
2022/11/16 02:18:38;;;;;;;71.72;4.50;;;;;;;4.34;100.00;97397.53;5054959;28;20045;-87
2022/11/16 02:21:27;;;;;;;19.40;4.30;;;;;;;4.32;100.00;97391.66;5047081;28;20393;-87
2022/11/16 02:23:56;;;;;;;9.50;6.50;;;;;;;4.29;100.00;97392.84;5003891;28;20033;-87
2022/11/16 02:26:40;;;;;;;24.42;7.43;;;;;;;4.26;100.00;97402.84;5032840;28;20482;-88
2022/11/16 02:29:28;;;;;;;15.93;9.02;;;;;;;4.21;100.00;97406.00;5059730;28;20043;-87
2022/11/16 02:32:06;;;;;;;26.58;6.93;;;;;;;4.20;100.00;97393.94;5047382;28;20030;-87
2022/11/16 02:34:47;;;;;;;7.82;5.43;;;;;;;4.24;100.00;97395.19;5030277;28;20481;-88
2022/11/16 02:37:17;;;;;;;6.75;4.88;;;;;;;4.32;100.00;97402.94;5045956;28;20037;-87
2022/11/16 02:39:47;;;;;;;7.75;4.97;;;;;;;4.40;100.00;97401.22;5012926;28;20040;-83
2022/11/16 02:42:19;;;;;;;11.90;6.68;;;;;;;4.43;100.00;97409.53;5014765;28;20040;-83
2022/11/16 02:44:48;;;;;;;11.27;6.07;;;;;;;4.41;100.00;97408.88;5048277;28;20323;-87
2022/11/16 02:47:22;;;;;;;6.82;4.43;;;;;;;4.47;100.00;97417.84;5028984;28;20041;-87
2022/11/16 02:49:57;;;;;;;6.72;4.97;;;;;;;4.49;100.00;97421.06;5011509;28;20033;-88
2022/11/16 02:52:25;;;;;;;8.80;5.18;;;;;;;4.48;100.00;97409.00;5031616;28;20439;-87
2022/11/16 02:54:51;;;;;;;8.55;5.97;;;;;;;4.47;100.00;97416.00;5031972;28;20039;-87
2022/11/16 02:57:48;;;;;;;9.05;5.18;;;;;;;4.47;100.00;97418.63;5038846;28;20037;-87
2022/11/16 03:00:21;;;;;;;8.43;5.35;;;;;;;4.49;100.00;97417.66;5029703;28;20030;-88
2022/11/16 03:02:51;;;;;;;4.47;3.35;;;;;;;4.50;100.00;97416.66;5006721;28;20064;-83
2022/11/16 03:05:19;;;;;;;3.55;2.40;;;;;;;4.47;100.00;97423.06;5027181;28;20069;-83
2022/11/16 03:08:07;;;;;;;2.45;2.17;;;;;;;4.46;100.00;97417.00;5020171;28;20044;-87
2022/11/16 03:13:26;;;;;;;5.05;2.25;;;;;;;4.45;100.00;97422.44;5047203;28;20493;-87
2022/11/16 03:15:54;;;;;;;2.63;1.98;;;;;;;4.44;100.00;97423.44;5029696;28;20124;-86
2022/11/16 03:18:25;;;;;;;3.00;1.63;;;;;;;4.45;100.00;97427.66;5039993;28;20064;-83
2022/11/16 03:20:56;;;;;;;5.13;1.95;;;;;;;4.44;100.00;97423.44;5047315;28;20417;-83
2022/11/16 03:23:21;;;;;;;2.67;2.08;;;;;;;4.33;100.00;97428.09;5025883;28;20048;-88
2022/11/16 03:25:54;;;;;;;189.55;8.13;;;;;;;4.25;100.00;97430.81;5047695;28;20029;-87
2022/11/16 03:28:22;;;;;;;170.45;8.63;;;;;;;3.94;100.00;97432.53;5043035;28;20036;-87
2022/11/16 03:30:57;;;;;;;203.85;10.88;;;;;;;3.63;100.00;97422.97;5049731;28;20385;-88
2022/11/16 03:33:35;;;;;;;111.90;6.83;;;;;;;3.46;100.00;97422.28;5019763;28;20128;-88
2022/11/16 03:36:06;;;;;;;121.75;6.72;;;;;;;3.48;100.00;97420.31;5025107;28;20048;-88
2022/11/16 03:38:35;;;;;;;118.95;6.28;;;;;;;3.53;100.00;97414.56;5035309;28;20421;-87
2022/11/16 03:41:06;;;;;;;45.72;5.03;;;;;;;3.56;100.00;97415.03;5033244;28;20373;-87
2022/11/16 03:43:34;;;;;;;45.95;4.68;;;;;;;3.60;100.00;97416.31;5014995;28;20040;-87
2022/11/16 03:46:01;;;;;;;4.22;2.63;;;;;;;3.67;100.00;97413.81;5014695;28;20482;-87
2022/11/16 03:48:35;;;;;;;4.97;2.58;;;;;;;3.82;100.00;97410.44;5048681;28;20032;-87
2022/11/16 03:51:07;;;;;;;6.43;2.92;;;;;;;3.88;100.00;97414.97;5035384;28;20052;-87
2022/11/16 03:53:34;;;;;;;5.50;2.47;;;;;;;3.96;100.00;97422.75;5032074;28;20037;-86
2022/11/16 03:56:01;;;;;;;3.33;2.55;;;;;;;3.99;100.00;97424.19;5036441;28;20025;-87
2022/11/16 03:58:27;;;;;;;4.57;3.20;;;;;;;4.01;100.00;97424.00;5050008;28;20127;-87
2022/11/16 04:00:54;;;;;;;9.25;3.17;;;;;;;4.05;100.00;97420.84;5028517;28;20045;-87
2022/11/16 04:03:20;;;;;;;5.97;3.60;;;;;;;4.05;100.00;97431.31;5031271;28;20055;-87
2022/11/16 04:25:22;;;;;;;3.47;2.80;;;;;;;3.88;100.00;97435.03;5034923;28;20037;-87
2022/11/16 04:37:47;;;;;;;53.08;3.08;;;;;;;3.80;100.00;97436.75;5051945;28;20041;-83
2022/11/16 04:38:49;;;;;;;5.15;2.90;;;;;;;3.88;100.00;97448.09;5036898;28;20087;-87
2022/11/16 04:44:18;;;;;;;4.45;2.90;;;;;;;3.85;100.00;97457.91;5022110;28;20044;-87
2022/11/16 04:49:30;;;;;;;15.88;1.65;;;;;;;3.77;100.00;97460.63;5048941;28;20043;-87
2022/11/16 04:51:57;;;;;;;53.85;2.13;;;;;;;3.67;100.00;97460.00;5024564;28;20033;-87
2022/11/16 04:54:23;;;;;;;10.98;1.85;;;;;;;3.57;100.00;97457.63;5017094;28;20370;-87
2022/11/16 04:56:49;;;;;;;5.63;1.42;;;;;;;3.56;100.00;97462.06;5032379;28;20040;-87
2022/11/16 04:59:16;;;;;;;7.32;1.45;;;;;;;3.55;100.00;97457.00;5020406;28;20462;-87
2022/11/16 05:04:27;;;;;;;9.80;1.67;;;;;;;3.39;100.00;97463.97;5030368;28;20394;-87
2022/11/16 05:06:53;;;;;;;4.00;1.33;;;;;;;3.35;100.00;97465.28;5046303;28;20033;-87
2022/11/16 05:09:18;;;;;;;1.98;1.00;;;;;;;3.33;100.00;97457.63;5012385;28;20502;-87
2022/11/16 05:11:44;;;;;;;2.97;1.08;;;;;;;3.31;100.00;97470.00;5013783;28;20036;-87
2022/11/16 05:14:12;;;;;;;4.20;1.20;;;;;;;3.30;100.00;97468.41;5029936;28;20545;-87
2022/11/16 05:16:40;;;;;;;61.20;3.22;;;;;;;3.25;100.00;97473.31;5013439;28;20022;-88
2022/11/16 05:21:51;;;;;;;7.75;1.10;;;;;;;3.23;100.00;97488.34;5033203;28;20067;-87
2022/11/16 05:24:32;;;;;;;38.15;1.60;;;;;;;3.18;100.00;97478.41;5017432;28;20037;-87
2022/11/16 05:27:06;;;;;;;25.65;1.60;;;;;;;3.19;100.00;97479.22;5049347;28;20192;-87
2022/11/16 05:29:32;;;;;;;106.35;2.65;;;;;;;3.06;100.00;97471.94;5054317;28;20164;-88
2022/11/16 05:32:01;;;;;;;100.63;3.03;;;;;;;2.94;100.00;97471.50;5031204;28;20037;-87
2022/11/16 05:34:27;;;;;;;59.25;2.33;;;;;;;2.92;100.00;97474.28;5033036;28;20124;-87
2022/11/16 05:36:53;;;;;;;139.98;2.90;;;;;;;2.92;100.00;97463.84;5036272;28;20115;-87
2022/11/16 05:39:20;;;;;;;178.60;4.43;;;;;;;2.93;100.00;97459.44;5021157;28;20036;-87
2022/11/16 05:41:49;;;;;;;56.35;2.40;;;;;;;2.91;100.00;97453.56;5015906;28;20057;-87
2022/11/16 05:44:16;;;;;;;160.43;3.88;;;;;;;2.92;100.00;97455.19;5014261;28;20059;-87
2022/11/16 05:46:43;;;;;;;67.93;2.50;;;;;;;2.95;100.00;97457.47;5017507;28;20043;-87
2022/11/16 05:49:12;;;;;;;86.68;3.85;;;;;;;2.95;100.00;97454.84;5030364;28;20095;-87
2022/11/16 05:51:41;;;;;;;221.18;5.35;;;;;;;2.93;100.00;97454.22;5030096;28;20386;-87
2022/11/16 05:54:09;;;;;;;76.47;3.10;;;;;;;2.87;100.00;97460.91;5027527;28;20031;-87
2022/11/16 05:56:35;;;;;;;132.55;2.88;;;;;;;2.79;100.00;97460.94;5043804;28;20572;-87
2022/11/16 05:59:02;;;;;;;38.95;1.95;;;;;;;2.77;100.00;97461.13;5010707;28;20033;-88
2022/11/16 06:01:28;;;;;;;31.27;2.22;;;;;;;2.76;100.00;97461.28;5014452;28;20071;-87
2022/11/16 06:03:57;;;;;;;21.77;1.80;;;;;;;2.74;100.00;97469.28;5021730;28;20124;-87
2022/11/16 06:06:23;;;;;;;17.38;1.60;;;;;;;2.52;100.00;97476.84;5016717;28;20474;-87
2022/11/16 06:08:50;;;;;;;112.30;2.70;;;;;;;2.38;100.00;97477.50;5016631;28;20043;-87
2022/11/16 06:11:21;;;;;;;43.85;1.60;;;;;;;2.38;100.00;97490.53;5044457;28;20076;-87
2022/11/16 06:13:47;;;;;;;22.48;1.02;;;;;;;2.41;100.00;97487.59;5048485;28;20029;-87
2022/11/16 06:16:13;;;;;;;25.73;1.70;;;;;;;2.41;100.00;97487.59;5016739;28;20089;-87
2022/11/16 06:18:41;;;;;;;25.92;1.60;;;;;;;2.44;100.00;97497.69;5030611;28;20432;-87
2022/11/16 06:21:08;;;;;;;35.40;1.48;;;;;;;2.44;100.00;97495.91;5044738;28;20360;-87
2022/11/16 06:23:34;;;;;;;16.10;1.48;;;;;;;2.47;100.00;97499.97;5022345;28;20557;-87
2022/11/16 06:26:00;;;;;;;79.97;2.03;;;;;;;2.53;100.00;97504.56;5009499;28;20045;-87
2022/11/16 06:28:27;;;;;;;14.73;1.35;;;;;;;2.57;100.00;97507.63;5033778;28;20030;-87
2022/11/16 06:30:55;;;;;;;33.22;1.65;;;;;;;2.53;100.00;97508.94;5029887;28;20038;-87
2022/11/16 06:33:23;;;;;;;22.38;0.93;;;;;;;2.54;100.00;97503.56;5015524;28;20080;-87
2022/11/16 06:35:49;;;;;;;47.03;1.45;;;;;;;2.60;100.00;97500.28;5022103;28;20036;-87
2022/11/16 06:38:20;;;;;;;53.95;1.58;;;;;;;2.62;100.00;97500.13;5017705;28;20559;-87
2022/11/16 06:40:57;;;;;;;188.38;2.88;;;;;;;2.62;100.00;97497.50;5037697;28;20037;-87
2022/11/16 06:43:26;;;;;;;359.17;8.65;;;;;;;2.58;100.00;97494.41;5027129;28;20355;-87
2022/11/16 06:45:56;;;;;;;344.38;8.23;;;;;;;2.63;100.00;97490.53;5021370;28;20041;-87
2022/11/16 06:48:22;;;;;;;154.02;3.45;;;;;;;2.65;100.00;97494.56;5033943;28;20037;-87
2022/11/16 06:50:53;;;;;;;150.50;2.90;;;;;;;2.68;100.00;97496.84;5035856;28;20041;-87
2022/11/16 06:53:21;;;;;;;88.22;2.08;;;;;;;2.68;100.00;97491.63;5034126;28;20040;-87
2022/11/16 06:55:47;;;;;;;28.95;1.20;;;;;;;2.65;100.00;97496.34;5050115;28;20125;-87
2022/11/16 06:58:13;;;;;;;86.00;1.65;;;;;;;2.63;100.00;97495.72;5031874;28;20040;-87
2022/11/16 07:00:41;;;;;;;12.77;1.10;;;;;;;2.60;100.00;97502.91;5035145;28;20132;-87
2022/11/16 07:03:09;;;;;;;34.53;1.15;;;;;;;2.59;100.00;97503.88;5049559;28;20037;-87
2022/11/16 07:05:39;;;;;;;11.88;0.90;;;;;;;2.60;100.00;97500.28;5033243;28;20084;-87
2022/11/16 07:08:08;;;;;;;8.35;0.93;;;;;;;2.52;100.00;97500.31;5050630;28;20116;-87
2022/11/16 07:10:36;;;;;;;5.30;0.77;;;;;;;2.51;100.00;97511.72;5034044;28;20120;-87
2022/11/16 07:13:03;;;;;;;3.05;0.70;;;;;;;2.49;100.00;97513.66;5034644;28;20040;-87
2022/11/16 07:15:29;;;;;;;12.60;0.82;;;;;;;2.41;100.00;97517.09;5034789;28;20072;-87
2022/11/16 07:17:55;;;;;;;1.15;0.68;;;;;;;2.33;100.00;97517.94;5022159;28;20397;-86
2022/11/16 07:20:21;;;;;;;16.73;0.85;;;;;;;2.28;100.00;97517.59;5013656;28;20033;-87
2022/11/16 07:22:48;;;;;;;63.88;1.98;;;;;;;2.27;100.00;97522.97;5023144;28;20592;-88
2022/11/16 07:25:16;;;;;;;44.75;1.42;;;;;;;2.25;100.00;97528.34;5016851;28;20069;-87
2022/11/16 07:27:41;;;;;;;80.40;1.77;;;;;;;2.25;100.00;97523.13;5013285;28;20435;-87
2022/11/16 07:30:09;;;;;;;6.05;0.75;;;;;;;2.24;100.00;97521.50;5031033;28;20071;-87
2022/11/16 07:32:38;;;;;;;40.80;1.60;;;;;;;2.21;100.00;97519.22;5046569;28;20094;-87
2022/11/16 07:35:19;;;;;;;14.73;0.93;;;;;;;2.24;100.00;97524.13;5048802;28;20047;-88
2022/11/16 07:37:45;;;;;;;63.72;1.50;;;;;;;2.22;100.00;97515.66;5032313;28;20029;-88
2022/11/16 07:40:13;;;;;;;165.68;2.92;;;;;;;2.21;100.00;97521.84;5050454;28;20040;-87
2022/11/16 07:42:39;;;;;;;47.38;1.35;;;;;;;2.22;100.00;97521.69;5021554;28;20359;-88
2022/11/16 07:45:13;;;;;;;60.88;1.52;;;;;;;2.22;100.00;97518.25;5037456;28;20047;-87
2022/11/16 07:47:51;;;;;;;69.28;1.35;;;;;;;2.21;100.00;97519.22;5037967;28;20115;-87
2022/11/16 07:50:23;;;;;;;38.15;1.95;;;;;;;2.21;100.00;97520.03;5040831;28;20552;-87
2022/11/16 07:52:50;;;;;;;14.52;0.80;;;;;;;2.23;100.00;97515.47;5043378;28;20037;-87
2022/11/16 07:55:19;;;;;;;7.75;0.82;;;;;;;2.21;100.00;97521.84;5023978;28;20041;-87
2022/11/16 07:57:47;;;;;;;37.28;1.17;;;;;;;2.16;100.00;97524.13;4994579;28;20481;-87
2022/11/16 08:00:14;;;;;;;6.03;0.82;;;;;;;2.04;100.00;97524.44;5016223;28;20037;-90
2022/11/16 08:02:42;;;;;;;1.95;0.70;;;;;;;1.97;100.00;97526.06;5018160;28;20049;-88
2022/11/16 08:05:14;;;;;;;9.43;0.75;;;;;;;1.94;100.00;97515.97;5020873;28;20559;-88
2022/11/16 08:07:40;;;;;;;2.28;0.60;;;;;;;1.97;100.00;97516.47;5042527;28;20051;-88
2022/11/16 08:10:07;;;;;;;26.33;1.00;;;;;;;1.99;100.00;97513.69;5037047;28;20040;-88
2022/11/16 08:12:33;;;;;;;129.35;3.03;;;;;;;2.04;100.00;97523.63;5049652;28;20029;-88
2022/11/16 08:14:59;;;;;;;73.70;1.65;;;;;;;2.07;100.00;97531.13;5028644;28;20385;-88
2022/11/16 08:17:26;;;;;;;87.28;1.77;;;;;;;2.07;100.00;97529.31;5034019;28;20029;-87
2022/11/16 08:19:54;;;;;;;129.13;2.35;;;;;;;2.09;100.00;97527.38;5011109;28;20048;-87
2022/11/16 08:22:21;;;;;;;105.47;3.00;;;;;;;2.18;100.00;97536.00;5045584;28;20439;-88
2022/11/16 08:24:47;;;;;;;53.28;1.27;;;;;;;2.20;100.00;97528.84;5050533;28;20033;-88
2022/11/16 08:27:15;;;;;;;54.17;1.30;;;;;;;2.15;100.00;97536.31;5033599;28;20079;-88
2022/11/16 08:29:43;;;;;;;117.95;2.63;;;;;;;2.07;100.00;97533.72;5018219;28;20033;-88
2022/11/16 08:32:09;;;;;;;10.82;1.10;;;;;;;2.08;100.00;97535.34;5046672;28;20033;-88
2022/11/16 08:34:35;;;;;;;4.53;1.17;;;;;;;2.01;100.00;97529.97;5032572;28;20029;-88
2022/11/16 08:37:02;;;;;;;13.23;0.98;;;;;;;2.01;100.00;97540.38;5017214;28;20397;-87
2022/11/16 08:39:37;;;;;;;27.48;1.30;;;;;;;2.05;100.00;97540.88;5017135;28;20037;-88
2022/11/16 08:42:02;;;;;;;4.13;0.88;;;;;;;2.14;100.00;97536.47;5031832;28;20542;-87
2022/11/16 08:44:29;;;;;;;1.23;0.60;;;;;;;2.22;100.00;97533.88;5032981;28;20494;-87
2022/11/16 08:46:57;;;;;;;11.75;0.80;;;;;;;2.29;100.00;97528.84;5021520;28;20379;-87
2022/11/16 08:49:52;;;;;;;12.95;1.00;;;;;;;2.33;100.00;97544.00;5038228;28;20071;-87
2022/11/16 08:52:19;;;;;;;16.65;0.98;;;;;;;2.38;100.00;97553.09;5051033;28;20075;-88
2022/11/16 08:54:46;;;;;;;5.25;1.05;;;;;;;2.42;100.00;97572.66;5014272;28;20532;-87
2022/11/16 08:57:11;;;;;;;0.60;0.57;;;;;;;2.37;100.00;97562.72;5026911;28;20059;-87
2022/11/16 08:59:41;;;;;;;6.13;0.70;;;;;;;2.33;100.00;97562.25;5018918;28;20033;-88
2022/11/16 09:02:11;;;;;;;2.95;0.50;;;;;;;2.34;100.00;97560.44;5040793;28;20406;-88
2022/11/16 09:04:37;;;;;;;2.28;0.60;;;;;;;2.35;100.00;97564.69;5018178;28;20037;-87
2022/11/16 09:07:03;;;;;;;5.43;0.70;;;;;;;2.34;100.00;97563.06;5028641;28;20025;-87
2022/11/16 09:09:29;;;;;;;1.33;1.23;;;;;;;2.29;100.00;97553.13;5031984;28;20040;-87
2022/11/16 09:11:55;;;;;;;3.22;1.85;;;;;;;2.22;100.00;97552.94;5047928;28;20036;-88
2022/11/16 09:14:20;;;;;;;23.77;6.82;;;;;;;2.23;100.00;97553.75;5034710;28;20029;-87
2022/11/16 09:16:47;;;;;;;12.93;4.22;;;;;;;2.25;100.00;97548.38;5020617;28;20060;-87
2022/11/16 09:19:13;;;;;;;19.35;4.00;;;;;;;2.29;100.00;97553.13;5025031;28;20053;-87
2022/11/16 09:21:39;;;;;;;5.80;3.40;;;;;;;2.41;100.00;97558.00;5030847;28;20037;-87
2022/11/16 09:24:05;;;;;;;12.45;2.33;;;;;;;2.48;100.00;97562.38;5050290;28;20090;-87
2022/11/16 09:26:30;;;;;;;14.70;1.75;;;;;;;2.53;100.00;97564.53;5047359;28;20105;-87
2022/11/16 09:28:58;;;;;;;11.40;1.00;;;;;;;2.54;100.00;97565.31;5021101;28;20485;-87
2022/11/16 09:31:26;;;;;;;25.88;1.65;;;;;;;2.54;100.00;97573.13;5049616;28;20044;-87
2022/11/16 09:33:53;;;;;;;14.20;1.88;;;;;;;2.56;100.00;97565.97;5047605;28;20061;-87
2022/11/16 09:36:20;;;;;;;13.27;1.65;;;;;;;2.59;100.00;97563.88;4989851;28;21083;-87
2022/11/16 09:38:46;;;;;;;1.67;0.95;;;;;;;2.63;100.00;97553.91;5026148;28;20081;-87
2022/11/16 09:41:12;;;;;;;11.90;1.00;;;;;;;2.63;100.00;97548.69;5023832;28;20037;-88
2022/11/16 09:43:40;;;;;;;8.23;1.10;;;;;;;2.63;100.00;97546.06;5014587;28;20079;-87
2022/11/16 09:46:12;;;;;;;2.78;0.90;;;;;;;2.64;100.00;97546.91;5059269;28;20394;-87
2022/11/16 09:48:40;;;;;;;17.85;1.65;;;;;;;2.68;100.00;97550.78;5010222;28;20045;-88
2022/11/16 09:51:11;;;;;;;84.13;3.38;;;;;;;2.64;100.00;97531.25;5038132;28;20033;-88
2022/11/16 09:53:40;;;;;;;49.35;2.25;;;;;;;2.64;100.00;97526.03;5030218;28;20041;-87
2022/11/16 09:56:11;;;;;;;124.88;4.07;;;;;;;2.67;100.00;97525.69;5042810;28;20505;-87
2022/11/16 09:58:53;;;;;;;49.53;2.10;;;;;;;2.67;100.00;97521.31;5031506;28;20071;-87
2022/11/16 10:01:25;;;;;;;101.95;3.13;;;;;;;2.68;100.00;97525.53;5044174;28;20065;-87
2022/11/16 10:03:58;;;;;;;139.75;4.57;;;;;;;2.73;100.00;97515.44;5047730;28;20040;-87
2022/11/16 10:06:45;;;;;;;134.85;4.07;;;;;;;2.73;100.00;97509.38;5042928;28;20116;-87
2022/11/16 10:09:11;;;;;;;92.95;3.30;;;;;;;2.65;100.00;97498.97;5036566;28;20540;-87
2022/11/16 10:11:37;;;;;;;130.65;3.10;;;;;;;2.63;100.00;97503.56;5025056;28;20040;-87
2022/11/16 10:14:29;;;;;;;82.20;2.42;;;;;;;2.64;100.00;97497.34;5046487;28;20041;-87
2022/11/16 10:17:30;;;;;;;63.53;2.67;;;;;;;2.66;100.00;97498.00;5030036;28;20124;-87
2022/11/16 10:19:59;;;;;;;81.97;3.60;;;;;;;2.65;100.00;97499.78;5015623;28;20048;-87
2022/11/16 10:22:54;;;;;;;81.85;3.75;;;;;;;2.74;100.00;97516.22;5003276;28;20029;-87
2022/11/16 10:25:23;;;;;;;53.33;2.88;;;;;;;2.74;100.00;97508.41;5015134;28;20033;-87
2022/11/16 10:27:55;;;;;;;36.35;3.08;;;;;;;2.73;100.00;97507.59;5058246;28;20040;-87
2022/11/16 10:30:21;;;;;;;178.45;7.22;;;;;;;2.75;100.00;97506.63;5039168;28;20099;-87
2022/11/16 10:33:14;;;;;;;46.83;3.38;;;;;;;2.87;100.00;97504.47;5013243;28;20037;-87
2022/11/16 10:35:45;;;;;;;120.22;3.17;;;;;;;3.01;100.00;97514.19;5045937;28;20052;-87
2022/11/16 10:38:14;;;;;;;58.22;2.10;;;;;;;3.19;100.00;97506.13;5049940;28;20112;-87
2022/11/16 10:40:44;;;;;;;124.40;3.22;;;;;;;3.29;100.00;97490.28;5030637;28;20061;-87
2022/11/16 10:43:17;;;;;;;83.90;3.22;;;;;;;3.39;100.00;97478.81;5044721;28;20021;-87
2022/11/16 10:46:11;;;;;;;145.00;3.92;;;;;;;3.46;100.00;97469.28;5027994;28;20029;-87
2022/11/16 10:49:21;;;;;;;91.97;3.55;;;;;;;3.49;100.00;97468.94;5027370;28;20036;-87
2022/11/16 10:51:47;;;;;;;137.27;4.05;;;;;;;3.45;100.00;97465.06;4989185;28;20046;-87
2022/11/16 10:54:14;;;;;;;29.40;2.05;;;;;;;3.54;100.00;97468.41;5019207;28;20426;-87
2022/11/16 10:56:44;;;;;;;49.25;3.63;;;;;;;3.64;100.00;97476.84;5030019;28;20037;-87
2022/11/16 10:59:12;;;;;;;128.60;5.93;;;;;;;3.74;100.00;97470.59;5050664;28;20029;-87
2022/11/16 11:01:49;;;;;;;33.40;3.72;;;;;;;3.87;100.00;97462.97;5017129;28;20049;-87
2022/11/16 11:04:21;;;;;;;27.63;3.25;;;;;;;3.96;100.00;97461.13;5043667;28;20041;-87
2022/11/16 11:06:50;;;;;;;28.55;3.17;;;;;;;3.97;100.00;97460.13;5034307;28;20033;-87
2022/11/16 11:09:33;;;;;;;59.88;3.22;;;;;;;4.09;100.00;97463.16;5037193;28;20033;-87
2022/11/16 11:15:10;;;;;;;84.97;4.63;;;;;;;4.42;100.00;97451.56;5031343;28;20493;-87
2022/11/16 11:17:41;;;;;;;13.40;2.50;;;;;;;4.59;100.00;97458.25;5033976;28;20033;-87
2022/11/16 11:20:16;;;;;;;30.73;2.85;;;;;;;4.76;100.00;97458.06;5029814;28;20087;-87
2022/11/16 11:22:58;;;;;;;230.25;8.23;;;;;;;4.94;100.00;97455.06;5031856;28;20029;-88
2022/11/16 11:25:29;;;;;;;139.52;5.55;;;;;;;5.02;100.00;97455.97;5029707;28;20056;-87
2022/11/16 11:28:18;;;;;;;8.43;1.55;;;;;;;5.14;100.00;97453.69;5022371;28;20029;-87
2022/11/16 11:31:02;;;;;;;140.02;5.63;;;;;;;5.25;100.00;97447.16;5069401;28;20485;-87
2022/11/16 11:33:32;;;;;;;2.30;2.08;;;;;;;5.33;100.00;97440.03;5035296;28;20037;-87
2022/11/16 11:36:26;;;;;;;41.58;2.45;;;;;;;5.50;100.00;97441.59;5009559;28;20094;-87
2022/11/16 11:39:02;;;;;;;25.92;2.53;;;;;;;5.63;100.00;97441.72;5041772;28;20045;-87
2022/11/16 11:41:39;;;;;;;3.70;1.77;;;;;;;5.75;100.00;97447.25;5030561;28;20060;-86
2022/11/16 11:44:15;;;;;;;3.10;1.67;;;;;;;5.87;100.00;97444.16;5048636;28;20037;-87
2022/11/16 11:47:24;;;;;;;23.58;2.45;;;;;;;5.99;100.00;97444.47;5040980;28;20029;-87
2022/11/16 11:49:57;;;;;;;8.07;1.80;;;;;;;6.13;100.00;97442.78;5051717;28;20055;-87
2022/11/16 11:52:38;;;;;;;4.13;1.73;;;;;;;6.27;100.00;97441.88;5046941;28;20087;-87
2022/11/16 11:55:06;;;;;;;2.65;1.67;;;;;;;6.37;100.00;97436.28;4999345;28;20044;-87
2022/11/16 11:57:41;;;;;;;4.32;1.85;;;;;;;6.49;100.00;97430.50;5035199;28;20096;-87
2022/11/16 12:00:08;;;;;;;4.30;1.58;;;;;;;6.62;100.00;97427.16;5011257;28;20476;-87
2022/11/16 12:03:28;;;;;;;4.65;1.65;;;;;;;6.75;100.00;97421.16;5048525;28;20099;-87
2022/11/16 12:06:15;;;;;;;3.60;1.70;;;;;;;6.81;100.00;97423.84;5010521;28;20391;-87
2022/11/16 12:08:52;;;;;;;4.07;1.45;;;;;;;6.84;100.00;97427.88;5039300;28;20061;-86
2022/11/16 12:11:36;;;;;;;3.67;1.50;;;;;;;6.88;100.00;97428.28;5047241;28;20029;-87
2022/11/16 12:14:25;;;;;;;3.20;1.63;;;;;;;6.98;100.00;97433.16;5019085;28;20060;-87
2022/11/16 12:16:50;;;;;;;5.07;0.95;;;;;;;7.02;100.00;97418.66;5034640;28;20433;-87
2022/11/16 12:19:37;;;;;;;2.63;1.38;;;;;;;7.11;100.00;97414.03;5008782;28;20036;-87
2022/11/16 12:22:20;;;;;;;8.57;1.50;;;;;;;7.04;100.00;97403.53;5017643;28;20045;-87
2022/11/16 12:24:46;;;;;;;2.85;1.38;;;;;;;7.00;100.00;97400.47;5023534;28;20045;-87
2022/11/16 12:27:45;;;;;;;3.72;1.50;;;;;;;7.07;100.00;97387.38;5030685;28;20477;-87
2022/11/16 12:30:20;;;;;;;12.98;1.75;;;;;;;7.19;100.00;97383.16;5039660;28;20045;-87
2022/11/16 12:32:49;;;;;;;11.48;1.30;;;;;;;7.32;100.00;97378.94;5031233;28;20068;-87
2022/11/16 12:35:45;;;;;;;2.60;1.27;;;;;;;7.47;100.00;97376.09;5022422;28;20060;-87